M4 — V7YF6 — position and weather

sailwx.info

Track history (hours):
 
Tides and Currents Weather Stations Pressure Air Temp Water Temp Dewpoint Dewpoint Depression Visibility Wind Speed Wind Dir Waves Ship Positions

M4

Last reported at 2014-Jul-29 08:33 UTC. Time now 2014-Jul-29 08:49 UTC.
Position N 41°04' W 072°22'.

Length 42 m; draft 2.4 m.

Type: Pleasure craft. MMSI: 538708350.

Date/timePositionNaut miles runAvg speedWind from/ knotsBaromVisibWave heightAir tempDewpointWater temp
2014-Jul-29 08:33N 41°04' W 072°22'0 0.0
2014-Jul-29 07:33N 41°04' W 072°22'0 0.0
2014-Jul-29 06:33N 41°04' W 072°22'0 0.0
2014-Jul-29 05:33N 41°04' W 072°22'0 0.1
2014-Jul-29 04:33N 41°04' W 072°23'0 0.0
2014-Jul-29 03:33N 41°04' W 072°23'0 0.0
2014-Jul-29 02:33N 41°04' W 072°23'0 0.0
2014-Jul-29 01:33N 41°04' W 072°23'0 0.1
2014-Jul-29 00:33N 41°04' W 072°22'0 0.0
2014-Jul-28 23:33N 41°04' W 072°22'4 3.7
2014-Jul-28 22:33N 41°06' W 072°18'6 5.7
2014-Jul-28 21:33N 41°01' W 072°17'0 0.0
2014-Jul-28 20:33N 41°01' W 072°17'0 0.0
2014-Jul-28 19:33N 41°01' W 072°17'0 0.0
2014-Jul-28 18:32N 41°01' W 072°17'0 0.0
2014-Jul-28 17:31N 41°01' W 072°17'0 0.0
2014-Jul-28 16:31N 41°01' W 072°17'0 0.0
2014-Jul-28 15:31N 41°01' W 072°17'0 0.0
2014-Jul-28 14:32N 41°01' W 072°17'0 0.0
2014-Jul-28 13:32N 41°01' W 072°17'0 0.0
2014-Jul-28 12:31N 41°01' W 072°17'0 0.0
2014-Jul-28 11:32N 41°01' W 072°17'0 0.0
2014-Jul-28 10:32N 41°01' W 072°17'0 0.0
2014-Jul-28 09:32N 41°01' W 072°17'0 0.0
2014-Jul-28 08:29N 41°01' W 072°17'0 0.0
2014-Jul-28 07:31N 41°01' W 072°17'0 0.0
2014-Jul-28 06:31N 41°01' W 072°17'0 0.0
2014-Jul-28 05:33N 41°01' W 072°17'0 0.0
2014-Jul-28 04:33N 41°01' W 072°17'0 0.0
2014-Jul-28 03:33N 41°01' W 072°17'0 0.0
2014-Jul-28 02:33N 41°01' W 072°17'0 0.0
2014-Jul-28 01:32N 41°01' W 072°17'0 0.0
2014-Jul-28 00:32N 41°01' W 072°17'0 0.0
2014-Jul-27 23:32N 41°01' W 072°17'0 0.0
2014-Jul-27 22:33N 41°01' W 072°17'8 7.9
2014-Jul-27 21:33N 41°07' W 072°11'9 9.4
2014-Jul-27 20:33N 41°10' W 071°59'8 7.9
2014-Jul-27 19:33N 41°10' W 071°48'1212.2
2014-Jul-27 18:33N 41°10' W 072°05'1110.9
2014-Jul-27 17:34N 41°03' W 072°16'2 2.3
2014-Jul-27 16:32N 41°00' W 072°17'0 0.0
2014-Jul-27 15:32N 41°00' W 072°17'0 0.0
2014-Jul-27 14:32N 41°00' W 072°17'0 0.0
2014-Jul-27 13:33N 41°00' W 072°17'0 0.0
2014-Jul-27 12:33N 41°00' W 072°17'0 0.0
2014-Jul-27 11:32N 41°00' W 072°17'0 0.0
2014-Jul-27 10:33N 41°00' W 072°17'0 0.0
2014-Jul-27 09:33N 41°00' W 072°17'0 0.0
2014-Jul-27 08:33N 41°00' W 072°17'0 0.0
2014-Jul-27 07:33N 41°00' W 072°17'0 0.0
2014-Jul-27 06:32N 41°00' W 072°17'0 0.0
2014-Jul-27 05:32N 41°00' W 072°17'0 0.0
2014-Jul-27 04:32N 41°00' W 072°17'0 0.0
2014-Jul-27 03:31N 41°00' W 072°17'0 0.0
2014-Jul-27 02:31N 41°00' W 072°17'0 0.0
2014-Jul-27 01:31N 41°00' W 072°17'0 0.0
2014-Jul-27 00:31N 41°00' W 072°17'0 0.0
2014-Jul-26 23:31N 41°00' W 072°17'0 0.0
2014-Jul-26 22:33N 41°00' W 072°17'0 0.0
2014-Jul-26 21:33N 41°00' W 072°17'0 0.0
2014-Jul-26 20:33N 41°00' W 072°17'0 0.0
2014-Jul-26 19:33N 41°00' W 072°17'0 0.0
2014-Jul-26 18:32N 41°00' W 072°17'0 0.0
2014-Jul-26 17:32N 41°00' W 072°17'0 0.0
2014-Jul-26 16:32N 41°00' W 072°17'0 0.0
2014-Jul-26 15:29N 41°00' W 072°17'0 0.0
2014-Jul-26 14:31N 41°00' W 072°17'0 0.0
2014-Jul-26 13:33N 41°00' W 072°17'0 0.0
2014-Jul-26 12:33N 41°00' W 072°17'0 0.0
2014-Jul-26 11:33N 41°00' W 072°17'0 0.0
2014-Jul-26 10:33N 41°00' W 072°17'0 0.0
2014-Jul-26 09:32N 41°00' W 072°17'0 0.0
2014-Jul-26 08:31N 41°00' W 072°17'0 0.0
2014-Jul-26 07:31N 41°00' W 072°17'0 0.0
2014-Jul-26 06:33N 41°00' W 072°17'0 0.0
2014-Jul-26 05:32N 41°00' W 072°17'0 0.0
2014-Jul-26 04:32N 41°00' W 072°17'0 0.0
2014-Jul-26 03:31N 41°00' W 072°17'0 0.0
2014-Jul-26 02:33N 41°00' W 072°17'0 0.0
2014-Jul-26 01:31N 41°00' W 072°17'0 0.0
2014-Jul-26 00:31N 41°00' W 072°17'0 0.0
2014-Jul-25 23:31N 41°00' W 072°17'0 0.0
2014-Jul-25 22:33N 41°00' W 072°17'0 0.0
2014-Jul-25 21:31N 41°00' W 072°17'0 0.0
2014-Jul-25 20:31N 41°00' W 072°17'0 0.0
2014-Jul-25 19:31N 41°00' W 072°17'0 0.0
2014-Jul-25 18:31N 41°00' W 072°17'0 0.0
2014-Jul-25 17:32N 41°00' W 072°17'0 0.0
2014-Jul-25 16:32N 41°00' W 072°17'0 0.0
2014-Jul-25 15:32N 41°00' W 072°17'0 0.0
2014-Jul-25 14:32N 41°00' W 072°17'4 3.9
2014-Jul-25 13:34N 41°04' W 072°15'5 4.8
2014-Jul-25 12:31N 41°06' W 072°22'0 0.0
2014-Jul-25 11:31N 41°06' W 072°22'0 0.0
2014-Jul-25 10:31N 41°06' W 072°22'0 0.0
2014-Jul-25 09:31N 41°06' W 072°22'0 0.0
2014-Jul-25 08:31N 41°06' W 072°22'0 0.0
2014-Jul-25 07:31N 41°06' W 072°22'0 0.0
2014-Jul-25 06:31N 41°06' W 072°22'0 0.0
2014-Jul-25 05:31N 41°06' W 072°22'0 0.0
2014-Jul-25 04:31N 41°06' W 072°22'0 0.0
2014-Jul-25 03:31N 41°06' W 072°22'0 0.0
2014-Jul-25 02:31N 41°06' W 072°22'0 0.0
2014-Jul-25 01:31N 41°06' W 072°22'0 0.0
2014-Jul-25 00:31N 41°06' W 072°22'0 0.0
2014-Jul-24 23:31N 41°06' W 072°22'0 0.0
2014-Jul-24 22:31N 41°06' W 072°22'0 0.0
2014-Jul-24 21:31N 41°06' W 072°22'0 0.0
2014-Jul-24 20:31N 41°06' W 072°22'0 0.0
2014-Jul-24 19:31N 41°06' W 072°22'0 0.0
2014-Jul-24 18:31N 41°06' W 072°22'0 0.0
2014-Jul-24 17:31N 41°06' W 072°22'0 0.0
2014-Jul-24 16:31N 41°06' W 072°22'0 0.0
2014-Jul-24 15:31N 41°06' W 072°22'0 0.0
2014-Jul-24 14:33N 41°06' W 072°22'0 0.0
2014-Jul-24 13:33N 41°06' W 072°22'0 0.0
2014-Jul-24 12:33N 41°06' W 072°22'0 0.0
2014-Jul-24 11:33N 41°06' W 072°22'0 0.0
2014-Jul-24 10:33N 41°06' W 072°22'0 0.0
2014-Jul-24 09:33N 41°06' W 072°22'0 0.0
2014-Jul-24 08:33N 41°06' W 072°22'0 0.0
2014-Jul-24 07:33N 41°06' W 072°22'0 0.0
2014-Jul-24 06:32N 41°06' W 072°22'0 0.0
2014-Jul-24 05:32N 41°06' W 072°22'0 0.0
2014-Jul-24 04:32N 41°06' W 072°22'0 0.0
2014-Jul-24 03:31N 41°06' W 072°22'0 0.0
2014-Jul-24 02:31N 41°06' W 072°22'0 0.0
2014-Jul-24 01:33N 41°06' W 072°22'0 0.0
2014-Jul-24 00:33N 41°06' W 072°22'0 0.0
2014-Jul-23 23:32N 41°06' W 072°22'0 0.0
2014-Jul-23 22:32N 41°06' W 072°22'0 0.0
2014-Jul-23 21:31N 41°06' W 072°22'0 0.0
2014-Jul-23 20:33N 41°06' W 072°22'0 0.0
2014-Jul-23 19:33N 41°06' W 072°22'0 0.0
2014-Jul-23 18:32N 41°06' W 072°22'0 0.0
2014-Jul-23 17:31N 41°06' W 072°22'0 0.0
2014-Jul-23 16:31N 41°06' W 072°22'0 0.0
2014-Jul-23 15:31N 41°06' W 072°22'0 0.0
2014-Jul-23 14:28N 41°06' W 072°22'0 0.0
2014-Jul-23 13:31N 41°06' W 072°22'0 0.0
2014-Jul-23 12:31N 41°06' W 072°22'0 0.0
2014-Jul-23 11:33N 41°06' W 072°22'0 0.0
2014-Jul-23 10:33N 41°06' W 072°22'0 0.0
2014-Jul-23 09:33N 41°06' W 072°22'0 0.0
2014-Jul-23 08:32N 41°06' W 072°22'0 0.0
2014-Jul-23 07:32N 41°06' W 072°22'0 0.0
2014-Jul-23 06:32N 41°06' W 072°22'0 0.0
2014-Jul-23 05:31N 41°06' W 072°22'0 0.0
2014-Jul-23 04:31N 41°06' W 072°22'0 0.0
2014-Jul-23 03:31N 41°06' W 072°22'0 0.0
2014-Jul-23 02:33N 41°06' W 072°22'0 0.0
2014-Jul-23 01:32N 41°06' W 072°22'0 0.0
2014-Jul-23 00:32N 41°06' W 072°22'0 0.0
2014-Jul-22 23:32N 41°06' W 072°22'0 0.0
2014-Jul-22 22:31N 41°06' W 072°22'0 0.0
2014-Jul-22 21:31N 41°06' W 072°22'0 0.0
2014-Jul-22 20:30N 41°06' W 072°22'0 0.0
2014-Jul-22 19:32N 41°06' W 072°22'0 0.0
2014-Jul-22 18:34N 41°06' W 072°22'0 0.0
2014-Jul-22 17:33N 41°06' W 072°22'0 0.0
2014-Jul-22 16:33N 41°06' W 072°22'0 0.0
2014-Jul-22 15:27N 41°06' W 072°22'0 0.0
2014-Jul-22 14:33N 41°06' W 072°22'0 0.0
2014-Jul-22 13:32N 41°06' W 072°22'0 0.0
2014-Jul-22 12:31N 41°06' W 072°22'0 0.0
2014-Jul-22 11:33N 41°06' W 072°22'0 0.0
2014-Jul-22 10:32N 41°06' W 072°22'0 0.0
2014-Jul-22 09:32N 41°06' W 072°22'0 0.0
2014-Jul-22 08:31N 41°06' W 072°22'0 0.0
2014-Jul-22 07:31N 41°06' W 072°22'0 0.0
2014-Jul-22 06:31N 41°06' W 072°22'0 0.0
2014-Jul-22 05:33N 41°06' W 072°22'0 0.0
2014-Jul-22 04:33N 41°06' W 072°22'0 0.0
2014-Jul-22 03:32N 41°06' W 072°22'0 0.0
2014-Jul-22 02:31N 41°06' W 072°22'0 0.0
2014-Jul-22 01:31N 41°06' W 072°22'0 0.0
2014-Jul-22 00:31N 41°06' W 072°22'0 0.0
2014-Jul-21 23:31N 41°06' W 072°22'0 0.0
2014-Jul-21 22:31N 41°06' W 072°22'0 0.0
2014-Jul-21 21:33N 41°06' W 072°22'0 0.0
2014-Jul-21 20:33N 41°06' W 072°22'0 0.0
2014-Jul-21 20:15N 41°06' W 072°22'0 0.0
2014-Jul-21 19:30N 41°06' W 072°22'5 4.9
2014-Jul-21 18:33N 41°05' W 072°16'4 4.2
2014-Jul-21 17:31N 41°00' W 072°17'0 0.0
2014-Jul-21 16:31N 41°00' W 072°17'0 0.0
2014-Jul-21 15:31N 41°00' W 072°17'0 0.0
2014-Jul-21 14:33N 41°00' W 072°17'  
Track history (hours):
 
Tides and Currents Weather Stations Pressure Air Temp Water Temp Dewpoint Dewpoint Depression Visibility Wind Speed Wind Dir Waves Ship Positions

M4

Last reported at 2014-Jul-29 08:33 UTC. Time now 2014-Jul-29 08:49 UTC.
Position N 41°04' W 072°22'.

Length 42 m; draft 2.4 m.

Type: Pleasure craft. MMSI: 538708350.

Date/timePositionNaut miles runAvg speedWind from/ knotsBaromVisibWave heightAir tempDewpointWater temp
2014-Jul-29 08:33N 41°04' W 072°22'0 0.0
2014-Jul-29 07:33N 41°04' W 072°22'0 0.0
2014-Jul-29 06:33N 41°04' W 072°22'0 0.0
2014-Jul-29 05:33N 41°04' W 072°22'0 0.1
2014-Jul-29 04:33N 41°04' W 072°23'0 0.0
2014-Jul-29 03:33N 41°04' W 072°23'0 0.0
2014-Jul-29 02:33N 41°04' W 072°23'0 0.0
2014-Jul-29 01:33N 41°04' W 072°23'0 0.1
2014-Jul-29 00:33N 41°04' W 072°22'0 0.0
2014-Jul-28 23:33N 41°04' W 072°22'4 3.7
2014-Jul-28 22:33N 41°06' W 072°18'6 5.7
2014-Jul-28 21:33N 41°01' W 072°17'0 0.0
2014-Jul-28 20:33N 41°01' W 072°17'0 0.0
2014-Jul-28 19:33N 41°01' W 072°17'0 0.0
2014-Jul-28 18:32N 41°01' W 072°17'0 0.0
2014-Jul-28 17:31N 41°01' W 072°17'0 0.0
2014-Jul-28 16:31N 41°01' W 072°17'0 0.0
2014-Jul-28 15:31N 41°01' W 072°17'0 0.0
2014-Jul-28 14:32N 41°01' W 072°17'0 0.0
2014-Jul-28 13:32N 41°01' W 072°17'0 0.0
2014-Jul-28 12:31N 41°01' W 072°17'0 0.0
2014-Jul-28 11:32N 41°01' W 072°17'0 0.0
2014-Jul-28 10:32N 41°01' W 072°17'0 0.0
2014-Jul-28 09:32N 41°01' W 072°17'0 0.0
2014-Jul-28 08:29N 41°01' W 072°17'0 0.0
2014-Jul-28 07:31N 41°01' W 072°17'0 0.0
2014-Jul-28 06:31N 41°01' W 072°17'0 0.0
2014-Jul-28 05:33N 41°01' W 072°17'0 0.0
2014-Jul-28 04:33N 41°01' W 072°17'0 0.0
2014-Jul-28 03:33N 41°01' W 072°17'0 0.0
2014-Jul-28 02:33N 41°01' W 072°17'0 0.0
2014-Jul-28 01:32N 41°01' W 072°17'0 0.0
2014-Jul-28 00:32N 41°01' W 072°17'0 0.0
2014-Jul-27 23:32N 41°01' W 072°17'0 0.0
2014-Jul-27 22:33N 41°01' W 072°17'8 7.9
2014-Jul-27 21:33N 41°07' W 072°11'9 9.4
2014-Jul-27 20:33N 41°10' W 071°59'8 7.9
2014-Jul-27 19:33N 41°10' W 071°48'1212.2
2014-Jul-27 18:33N 41°10' W 072°05'1110.9
2014-Jul-27 17:34N 41°03' W 072°16'2 2.3
2014-Jul-27 16:32N 41°00' W 072°17'0 0.0
2014-Jul-27 15:32N 41°00' W 072°17'0 0.0
2014-Jul-27 14:32N 41°00' W 072°17'0 0.0
2014-Jul-27 13:33N 41°00' W 072°17'0 0.0
2014-Jul-27 12:33N 41°00' W 072°17'0 0.0
2014-Jul-27 11:32N 41°00' W 072°17'0 0.0
2014-Jul-27 10:33N 41°00' W 072°17'0 0.0
2014-Jul-27 09:33N 41°00' W 072°17'0 0.0
2014-Jul-27 08:33N 41°00' W 072°17'0 0.0
2014-Jul-27 07:33N 41°00' W 072°17'0 0.0
2014-Jul-27 06:32N 41°00' W 072°17'0 0.0
2014-Jul-27 05:32N 41°00' W 072°17'0 0.0
2014-Jul-27 04:32N 41°00' W 072°17'0 0.0
2014-Jul-27 03:31N 41°00' W 072°17'0 0.0
2014-Jul-27 02:31N 41°00' W 072°17'0 0.0
2014-Jul-27 01:31N 41°00' W 072°17'0 0.0
2014-Jul-27 00:31N 41°00' W 072°17'0 0.0
2014-Jul-26 23:31N 41°00' W 072°17'0 0.0
2014-Jul-26 22:33N 41°00' W 072°17'0 0.0
2014-Jul-26 21:33N 41°00' W 072°17'0 0.0
2014-Jul-26 20:33N 41°00' W 072°17'0 0.0
2014-Jul-26 19:33N 41°00' W 072°17'0 0.0
2014-Jul-26 18:32N 41°00' W 072°17'0 0.0
2014-Jul-26 17:32N 41°00' W 072°17'0 0.0
2014-Jul-26 16:32N 41°00' W 072°17'0 0.0
2014-Jul-26 15:29N 41°00' W 072°17'0 0.0
2014-Jul-26 14:31N 41°00' W 072°17'0 0.0
2014-Jul-26 13:33N 41°00' W 072°17'0 0.0
2014-Jul-26 12:33N 41°00' W 072°17'0 0.0
2014-Jul-26 11:33N 41°00' W 072°17'0 0.0
2014-Jul-26 10:33N 41°00' W 072°17'0 0.0
2014-Jul-26 09:32N 41°00' W 072°17'0 0.0
2014-Jul-26 08:31N 41°00' W 072°17'0 0.0
2014-Jul-26 07:31N 41°00' W 072°17'0 0.0
2014-Jul-26 06:33N 41°00' W 072°17'0 0.0
2014-Jul-26 05:32N 41°00' W 072°17'0 0.0
2014-Jul-26 04:32N 41°00' W 072°17'0 0.0
2014-Jul-26 03:31N 41°00' W 072°17'0 0.0
2014-Jul-26 02:33N 41°00' W 072°17'0 0.0
2014-Jul-26 01:31N 41°00' W 072°17'0 0.0
2014-Jul-26 00:31N 41°00' W 072°17'0 0.0
2014-Jul-25 23:31N 41°00' W 072°17'0 0.0
2014-Jul-25 22:33N 41°00' W 072°17'0 0.0
2014-Jul-25 21:31N 41°00' W 072°17'0 0.0
2014-Jul-25 20:31N 41°00' W 072°17'0 0.0
2014-Jul-25 19:31N 41°00' W 072°17'0 0.0
2014-Jul-25 18:31N 41°00' W 072°17'0 0.0
2014-Jul-25 17:32N 41°00' W 072°17'0 0.0
2014-Jul-25 16:32N 41°00' W 072°17'0 0.0
2014-Jul-25 15:32N 41°00' W 072°17'0 0.0
2014-Jul-25 14:32N 41°00' W 072°17'4 3.9
2014-Jul-25 13:34N 41°04' W 072°15'5 4.8
2014-Jul-25 12:31N 41°06' W 072°22'0 0.0
2014-Jul-25 11:31N 41°06' W 072°22'0 0.0
2014-Jul-25 10:31N 41°06' W 072°22'0 0.0
2014-Jul-25 09:31N 41°06' W 072°22'0 0.0
2014-Jul-25 08:31N 41°06' W 072°22'0 0.0
2014-Jul-25 07:31N 41°06' W 072°22'0 0.0
2014-Jul-25 06:31N 41°06' W 072°22'0 0.0
2014-Jul-25 05:31N 41°06' W 072°22'0 0.0
2014-Jul-25 04:31N 41°06' W 072°22'0 0.0
2014-Jul-25 03:31N 41°06' W 072°22'0 0.0
2014-Jul-25 02:31N 41°06' W 072°22'0 0.0
2014-Jul-25 01:31N 41°06' W 072°22'0 0.0
2014-Jul-25 00:31N 41°06' W 072°22'0 0.0
2014-Jul-24 23:31N 41°06' W 072°22'0 0.0
2014-Jul-24 22:31N 41°06' W 072°22'0 0.0
2014-Jul-24 21:31N 41°06' W 072°22'0 0.0
2014-Jul-24 20:31N 41°06' W 072°22'0 0.0
2014-Jul-24 19:31N 41°06' W 072°22'0 0.0
2014-Jul-24 18:31N 41°06' W 072°22'0 0.0
2014-Jul-24 17:31N 41°06' W 072°22'0 0.0
2014-Jul-24 16:31N 41°06' W 072°22'0 0.0
2014-Jul-24 15:31N 41°06' W 072°22'0 0.0
2014-Jul-24 14:33N 41°06' W 072°22'0 0.0
2014-Jul-24 13:33N 41°06' W 072°22'0 0.0
2014-Jul-24 12:33N 41°06' W 072°22'0 0.0
2014-Jul-24 11:33N 41°06' W 072°22'0 0.0
2014-Jul-24 10:33N 41°06' W 072°22'0 0.0
2014-Jul-24 09:33N 41°06' W 072°22'0 0.0
2014-Jul-24 08:33N 41°06' W 072°22'0 0.0
2014-Jul-24 07:33N 41°06' W 072°22'0 0.0
2014-Jul-24 06:32N 41°06' W 072°22'0 0.0
2014-Jul-24 05:32N 41°06' W 072°22'0 0.0
2014-Jul-24 04:32N 41°06' W 072°22'0 0.0
2014-Jul-24 03:31N 41°06' W 072°22'0 0.0
2014-Jul-24 02:31N 41°06' W 072°22'0 0.0
2014-Jul-24 01:33N 41°06' W 072°22'0 0.0
2014-Jul-24 00:33N 41°06' W 072°22'0 0.0
2014-Jul-23 23:32N 41°06' W 072°22'0 0.0
2014-Jul-23 22:32N 41°06' W 072°22'0 0.0
2014-Jul-23 21:31N 41°06' W 072°22'0 0.0
2014-Jul-23 20:33N 41°06' W 072°22'0 0.0
2014-Jul-23 19:33N 41°06' W 072°22'0 0.0
2014-Jul-23 18:32N 41°06' W 072°22'0 0.0
2014-Jul-23 17:31N 41°06' W 072°22'0 0.0
2014-Jul-23 16:31N 41°06' W 072°22'0 0.0
2014-Jul-23 15:31N 41°06' W 072°22'0 0.0
2014-Jul-23 14:28N 41°06' W 072°22'0 0.0
2014-Jul-23 13:31N 41°06' W 072°22'0 0.0
2014-Jul-23 12:31N 41°06' W 072°22'0 0.0
2014-Jul-23 11:33N 41°06' W 072°22'0 0.0
2014-Jul-23 10:33N 41°06' W 072°22'0 0.0
2014-Jul-23 09:33N 41°06' W 072°22'0 0.0
2014-Jul-23 08:32N 41°06' W 072°22'0 0.0
2014-Jul-23 07:32N 41°06' W 072°22'0 0.0
2014-Jul-23 06:32N 41°06' W 072°22'0 0.0
2014-Jul-23 05:31N 41°06' W 072°22'0 0.0
2014-Jul-23 04:31N 41°06' W 072°22'0 0.0
2014-Jul-23 03:31N 41°06' W 072°22'0 0.0
2014-Jul-23 02:33N 41°06' W 072°22'0 0.0
2014-Jul-23 01:32N 41°06' W 072°22'0 0.0
2014-Jul-23 00:32N 41°06' W 072°22'0 0.0
2014-Jul-22 23:32N 41°06' W 072°22'0 0.0
2014-Jul-22 22:31N 41°06' W 072°22'0 0.0
2014-Jul-22 21:31N 41°06' W 072°22'0 0.0
2014-Jul-22 20:30N 41°06' W 072°22'0 0.0
2014-Jul-22 19:32N 41°06' W 072°22'0 0.0
2014-Jul-22 18:34N 41°06' W 072°22'0 0.0
2014-Jul-22 17:33N 41°06' W 072°22'0 0.0
2014-Jul-22 16:33N 41°06' W 072°22'0 0.0
2014-Jul-22 15:27N 41°06' W 072°22'0 0.0
2014-Jul-22 14:33N 41°06' W 072°22'0 0.0
2014-Jul-22 13:32N 41°06' W 072°22'0 0.0
2014-Jul-22 12:31N 41°06' W 072°22'0 0.0
2014-Jul-22 11:33N 41°06' W 072°22'0 0.0
2014-Jul-22 10:32N 41°06' W 072°22'0 0.0
2014-Jul-22 09:32N 41°06' W 072°22'0 0.0
2014-Jul-22 08:31N 41°06' W 072°22'0 0.0
2014-Jul-22 07:31N 41°06' W 072°22'0 0.0
2014-Jul-22 06:31N 41°06' W 072°22'0 0.0
2014-Jul-22 05:33N 41°06' W 072°22'0 0.0
2014-Jul-22 04:33N 41°06' W 072°22'0 0.0
2014-Jul-22 03:32N 41°06' W 072°22'0 0.0
2014-Jul-22 02:31N 41°06' W 072°22'0 0.0
2014-Jul-22 01:31N 41°06' W 072°22'0 0.0
2014-Jul-22 00:31N 41°06' W 072°22'0 0.0
2014-Jul-21 23:31N 41°06' W 072°22'0 0.0
2014-Jul-21 22:31N 41°06' W 072°22'0 0.0
2014-Jul-21 21:33N 41°06' W 072°22'0 0.0
2014-Jul-21 20:33N 41°06' W 072°22'0 0.0
2014-Jul-21 20:15N 41°06' W 072°22'0 0.0
2014-Jul-21 19:30N 41°06' W 072°22'5 4.9
2014-Jul-21 18:33N 41°05' W 072°16'4 4.2
2014-Jul-21 17:31N 41°00' W 072°17'0 0.0
2014-Jul-21 16:31N 41°00' W 072°17'0 0.0
2014-Jul-21 15:31N 41°00' W 072°17'0 0.0
2014-Jul-21 14:33N 41°00' W 072°17'  

Dump ship's entire track history